createdAt,value
2023-03-20T00:10:41.405Z,13.20
2023-03-20T00:25:46.596Z,15.40
2023-03-20T00:40:49.576Z,15.20
2023-03-20T00:55:52.307Z,13.10
2023-03-20T01:10:57.663Z,13.77
2023-03-20T01:26:00.666Z,11.60
2023-03-20T01:41:18.015Z,11.67
2023-03-20T01:56:21.361Z,13.93
2023-03-20T02:11:27.007Z,11.23
2023-03-20T02:26:42.660Z,10.97
2023-03-20T02:42:06.662Z,11.33
2023-03-20T02:57:36.625Z,13.27
2023-03-20T03:12:46.752Z,13.03
2023-03-20T03:27:56.872Z,13.87
2023-03-20T03:43:20.449Z,12.87
2023-03-20T03:58:31.866Z,12.57
2023-03-20T04:13:34.883Z,12.30
2023-03-20T04:28:38.120Z,11.93
2023-03-20T04:43:56.873Z,13.10
2023-03-20T04:59:00.334Z,16.33
2023-03-20T05:14:04.578Z,21.60
2023-03-20T05:29:19.581Z,19.10
2023-03-20T05:44:41.235Z,16.77
2023-03-20T06:00:19.608Z,11.53
2023-03-20T06:15:22.333Z,12.67
2023-03-20T06:30:32.103Z,12.83
2023-03-20T06:45:36.006Z,11.03
2023-03-20T07:00:43.808Z,9.83
2023-03-20T07:16:03.047Z,10.73
2023-03-20T07:31:23.230Z,11.53
2023-03-20T07:46:31.563Z,11.87
2023-03-20T08:01:36.806Z,12.93
2023-03-20T08:16:39.578Z,15.47
2023-03-20T08:31:42.335Z,13.20
2023-03-20T08:46:46.404Z,11.50
2023-03-20T09:01:50.418Z,7.97
2023-03-20T09:16:53.768Z,8.47
2023-03-20T09:31:56.602Z,8.10
2023-03-20T09:47:33.858Z,9.03
2023-03-20T10:02:52.084Z,8.57
2023-03-20T10:18:16.185Z,8.90
2023-03-20T10:33:57.606Z,5.37
2023-03-20T10:49:18.595Z,7.10
2023-03-20T11:04:21.677Z,5.30
2023-03-20T11:19:24.548Z,5.63
2023-03-20T11:34:31.721Z,4.63
2023-03-20T11:49:50.474Z,4.17
2023-03-20T12:04:53.175Z,5.33
2023-03-20T12:20:01.445Z,6.70
2023-03-20T12:35:19.820Z,6.83
2023-03-20T12:50:40.599Z,5.90
2023-03-20T13:06:00.846Z,8.57
2023-03-20T13:21:10.612Z,6.57
2023-03-20T13:36:24.216Z,4.87
2023-03-20T13:51:30.773Z,4.93
2023-03-20T14:06:49.005Z,4.80
2023-03-20T14:21:55.205Z,5.40
2023-03-20T14:37:03.872Z,4.13
2023-03-20T14:52:37.605Z,6.13
2023-03-20T15:07:40.445Z,5.93
2023-03-20T15:23:00.737Z,6.13
2023-03-20T15:38:08.079Z,5.47
2023-03-20T15:53:16.907Z,5.40
2023-03-20T16:08:27.278Z,6.53
2023-03-20T16:23:39.874Z,6.87
2023-03-20T16:38:56.702Z,5.70
2023-03-20T16:54:03.810Z,6.53
2023-03-20T17:09:21.083Z,3.90
2023-03-20T17:24:23.725Z,8.50
2023-03-20T17:39:26.356Z,7.33
2023-03-20T17:54:29.047Z,8.37
2023-03-20T18:09:32.205Z,6.13
2023-03-20T18:24:35.489Z,10.70
2023-03-20T18:39:38.263Z,6.83
2023-03-20T18:54:41.193Z,6.90
2023-03-20T19:09:45.917Z,8.67
2023-03-20T19:24:48.692Z,5.53
2023-03-20T19:39:55.281Z,5.53
2023-03-20T19:55:03.205Z,6.47
2023-03-20T20:10:06.874Z,9.17
2023-03-20T20:25:10.925Z,8.30
2023-03-20T20:40:18.113Z,9.13
2023-03-20T20:55:24.160Z,8.60
2023-03-20T21:10:27.460Z,8.47
2023-03-20T21:25:40.156Z,7.90
2023-03-20T21:40:44.958Z,7.13
2023-03-20T22:11:56.491Z,9.80
2023-03-20T22:42:35.281Z,9.57
2023-03-20T22:57:19.801Z,12.23
2023-03-20T23:12:22.645Z,11.27
2023-03-20T23:27:25.685Z,9.77
2023-03-20T23:42:30.825Z,8.47
2023-03-20T23:57:34.816Z,9.13
